Time;durP1;ratioP1;P1;durP2;ratioP2;P2;SDS_P1;SDS_P2;PMS_P1;PMS_P2;Temp;Humidity;BMP_temperature;BMP_pressure;BME280_temperature;BME280_humidity;BME280_pressure;Samples;Min_cycle;Max_cycle;Signal;HPM_P1;HPM_P2
2021/06/05 00:01:38;;;;;;;39.60;32.53;;;;;;;19.57;99.46;101414.13;4983855;28;20054;-85
2021/06/05 00:04:04;;;;;;;39.42;33.42;;;;;;;19.61;99.35;101405.31;4964486;28;20081;-86
2021/06/05 00:06:30;;;;;;;39.50;30.63;;;;;;;19.45;100.00;101403.03;4980856;28;20043;-86
2021/06/05 00:08:56;;;;;;;39.33;32.50;;;;;;;19.47;99.72;101408.25;4985735;28;20047;-86
2021/06/05 00:11:27;;;;;;;43.15;33.50;;;;;;;19.54;98.83;101407.22;4980863;28;20051;-87
2021/06/05 00:13:56;;;;;;;40.03;33.10;;;;;;;19.42;100.00;101406.19;4982853;28;20042;-85
2021/06/05 00:16:25;;;;;;;44.08;35.17;;;;;;;19.41;100.00;101403.66;4981761;28;20405;-85
2021/06/05 00:18:51;;;;;;;44.78;35.78;;;;;;;19.35;100.00;101406.16;4981670;28;20389;-87
2021/06/05 00:21:20;;;;;;;47.90;37.63;;;;;;;19.34;100.00;101392.75;4981112;28;20478;-86
2021/06/05 00:23:46;;;;;;;45.88;36.60;;;;;;;19.30;100.00;101400.47;4980592;28;20049;-86
2021/06/05 00:26:12;;;;;;;44.58;36.78;;;;;;;19.28;100.00;101399.88;4982148;28;20406;-85
2021/06/05 00:28:37;;;;;;;46.13;38.60;;;;;;;19.32;100.00;101397.56;4984964;28;20735;-86
2021/06/05 00:31:03;;;;;;;48.33;38.67;;;;;;;19.32;100.00;101394.84;4983721;28;20540;-85
2021/06/05 00:33:30;;;;;;;47.97;40.55;;;;;;;19.29;100.00;101403.44;4981538;28;20038;-88
2021/06/05 00:35:56;;;;;;;52.42;40.97;;;;;;;19.33;100.00;101399.22;4982678;28;20417;-86
2021/06/05 00:38:22;;;;;;;53.15;41.10;;;;;;;19.32;100.00;101397.56;4979649;28;20050;-86
2021/06/05 00:40:54;;;;;;;56.20;43.03;;;;;;;19.21;100.00;101400.91;4985064;28;20061;-87
2021/06/05 00:43:25;;;;;;;53.47;41.95;;;;;;;19.22;100.00;101405.28;4982813;28;20477;-88
2021/06/05 00:45:51;;;;;;;60.13;46.47;;;;;;;19.28;100.00;101399.88;4983972;28;20039;-89
2021/06/05 00:48:19;;;;;;;58.33;45.72;;;;;;;19.20;100.00;101394.63;4983313;28;20038;-88
2021/06/05 00:50:46;;;;;;;57.67;46.07;;;;;;;19.17;100.00;101403.19;4984681;28;20054;-89
2021/06/05 00:53:13;;;;;;;61.40;47.83;;;;;;;19.17;100.00;101406.75;4982603;28;20286;-88
2021/06/05 00:55:42;;;;;;;63.95;48.88;;;;;;;19.17;100.00;101406.75;4984620;28;20439;-91
2021/06/05 00:58:08;;;;;;;64.18;49.75;;;;;;;19.10;100.00;101402.34;4981803;28;20050;-90
2021/06/05 01:00:57;;;;;;;69.05;54.75;;;;;;;19.16;100.00;101412.38;4971763;28;20057;-88
2021/06/05 01:03:23;;;;;;;70.75;56.40;;;;;;;19.17;100.00;101403.19;4962425;28;20047;-88
2021/06/05 01:05:55;;;;;;;71.15;55.22;;;;;;;19.13;100.00;101408.22;4988309;28;20180;-89
2021/06/05 01:08:38;;;;;;;70.63;55.38;;;;;;;19.09;100.00;101408.81;4961209;28;20417;-88
2021/06/05 01:11:22;;;;;;;75.88;60.78;;;;;;;19.20;100.00;101407.41;4988696;28;20097;-88
2021/06/05 01:13:58;;;;;;;76.97;64.35;;;;;;;19.23;100.00;101418.69;4977897;28;20050;-89
2021/06/05 01:16:26;;;;;;;78.50;63.17;;;;;;;19.22;100.00;101408.88;4968940;28;20461;-89
2021/06/05 01:18:57;;;;;;;80.90;65.15;;;;;;;19.20;100.00;101407.41;4988031;28;20063;-88
2021/06/05 01:21:46;;;;;;;81.93;65.28;;;;;;;19.05;100.00;101402.13;4988277;28;20121;-88
2021/06/05 01:24:46;;;;;;;87.38;66.80;;;;;;;19.09;100.00;101411.53;4984688;28;20050;-88
2021/06/05 01:27:17;;;;;;;89.85;66.45;;;;;;;19.02;100.00;101407.97;4987814;28;20378;-88
2021/06/05 01:29:49;;;;;;;87.05;67.10;;;;;;;19.00;100.00;101407.34;4985603;28;20054;-89
2021/06/05 01:32:15;;;;;;;86.53;66.43;;;;;;;19.05;100.00;101399.41;4987231;28;20054;-90
2021/06/05 01:34:59;;;;;;;86.90;66.63;;;;;;;19.00;100.00;101394.56;4985053;28;20047;-88
2021/06/05 01:37:26;;;;;;;87.53;69.43;;;;;;;19.07;100.00;101387.25;4986009;28;20528;-88
2021/06/05 01:39:52;;;;;;;93.70;73.15;;;;;;;19.09;100.00;101374.28;4984775;28;20050;-88
2021/06/05 01:42:27;;;;;;;89.55;71.05;;;;;;;19.20;100.00;101369.31;4985366;28;20125;-88
2021/06/05 01:44:56;;;;;;;89.00;72.57;;;;;;;19.15;100.00;101376.19;4982625;28;20096;-87
2021/06/05 01:47:21;;;;;;;;;;;;;;;19.19;100.00;101378.50;4986354;28;20477;-87
2021/06/05 01:49:48;;;;;;;96.38;74.90;;;;;;;19.10;100.00;101376.00;4982089;28;19923;-89
2021/06/05 01:52:21;;;;;;;96.43;75.28;;;;;;;19.12;100.00;101378.50;4975306;28;20047;-88
2021/06/05 01:55:16;;;;;;;96.50;76.30;;;;;;;19.14;100.00;101370.97;4985057;28;20060;-88
2021/06/05 01:57:51;;;;;;;96.05;76.50;;;;;;;19.17;100.00;101382.28;4946961;28;20125;-87
2021/06/05 02:00:29;;;;;;;100.18;78.50;;;;;;;19.14;100.00;101390.00;4983593;28;20265;-87
2021/06/05 02:02:56;;;;;;;100.40;77.80;;;;;;;19.07;100.00;101391.88;4984699;28;20046;-88
2021/06/05 02:05:24;;;;;;;106.45;82.60;;;;;;;19.06;100.00;101391.03;4984822;28;20054;-88
2021/06/05 02:07:52;;;;;;;107.60;80.00;;;;;;;19.07;100.00;101392.69;4990912;28;20050;-87
2021/06/05 02:10:18;;;;;;;111.18;82.85;;;;;;;19.13;100.00;101393.75;4985063;28;20133;-87
2021/06/05 02:12:44;;;;;;;108.07;83.22;;;;;;;19.05;100.00;101393.97;4988199;28;20046;-88
2021/06/05 02:15:33;;;;;;;108.55;78.43;;;;;;;18.89;100.00;101395.16;4980173;28;20096;-87
2021/06/05 02:18:03;;;;;;;104.60;79.20;;;;;;;18.99;100.00;101394.78;4987069;28;20054;-87
2021/06/05 02:20:33;;;;;;;110.30;82.70;;;;;;;18.92;100.00;101390.16;4986344;28;20066;-86
2021/06/05 02:23:03;;;;;;;112.88;82.25;;;;;;;18.88;100.00;101397.06;4991904;28;20070;-85
2021/06/05 02:25:30;;;;;;;112.47;83.32;;;;;;;18.87;100.00;101405.41;4991475;28;20104;-87
2021/06/05 02:28:00;;;;;;;112.38;85.00;;;;;;;18.89;100.00;101400.59;4989636;28;20053;-86
2021/06/05 02:30:27;;;;;;;112.47;83.88;;;;;;;18.87;100.00;101398.13;4988119;28;20548;-86
2021/06/05 02:32:54;;;;;;;108.50;84.97;;;;;;;18.87;100.00;101397.25;4989184;28;20481;-87
2021/06/05 02:35:28;;;;;;;112.70;84.20;;;;;;;18.86;100.00;101392.88;4983014;28;20052;-88
2021/06/05 02:37:53;;;;;;;120.45;85.82;;;;;;;18.90;100.00;101396.84;4985512;28;20057;-86
2021/06/05 02:40:22;;;;;;;118.03;87.70;;;;;;;18.88;100.00;101407.09;4983905;28;20183;-88
2021/06/05 02:42:47;;;;;;;107.40;75.95;;;;;;;18.88;100.00;101396.22;4987581;28;20042;-87
2021/06/05 02:45:21;;;;;;;106.25;82.43;;;;;;;18.95;100.00;101402.50;4984224;28;20081;-87
2021/06/05 02:47:57;;;;;;;103.13;78.60;;;;;;;18.93;100.00;101404.59;4971082;28;20050;-88
2021/06/05 02:50:28;;;;;;;110.55;79.55;;;;;;;18.89;100.00;101396.00;4983822;28;20245;-86
2021/06/05 02:52:53;;;;;;;107.38;76.63;;;;;;;18.83;100.00;101398.72;4987112;28;20053;-87
2021/06/05 02:55:21;;;;;;;114.20;79.95;;;;;;;18.80;100.00;101396.41;4984535;28;20441;-87
2021/06/05 02:57:47;;;;;;;116.00;80.40;;;;;;;18.80;100.00;101401.84;4986779;28;20066;-88
2021/06/05 03:00:38;;;;;;;111.75;84.55;;;;;;;18.80;100.00;101401.84;4963911;28;20054;-86
2021/06/05 03:03:06;;;;;;;122.63;85.20;;;;;;;18.83;100.00;101396.00;4975442;28;20038;-88
2021/06/05 03:05:33;;;;;;;119.38;85.05;;;;;;;18.81;100.00;101398.06;4984368;28;20049;-86
2021/06/05 03:08:00;;;;;;;122.20;86.85;;;;;;;18.78;100.00;101390.31;4979841;28;20046;-86
2021/06/05 03:10:27;;;;;;;122.97;90.63;;;;;;;18.80;100.00;101388.25;4982693;28;20490;-86
2021/06/05 03:12:53;;;;;;;119.63;88.10;;;;;;;18.81;100.00;101392.63;4984455;28;20410;-86
2021/06/05 03:15:19;;;;;;;117.25;86.93;;;;;;;18.81;100.00;101398.06;4982507;28;20501;-85
2021/06/05 03:17:45;;;;;;;119.53;82.22;;;;;;;18.78;100.00;101388.44;4985940;28;20034;-87
2021/06/05 03:20:16;;;;;;;130.77;84.20;;;;;;;18.69;100.00;101390.47;4979969;28;20105;-86
2021/06/05 03:22:41;;;;;;;121.45;79.57;;;;;;;18.67;100.00;101383.56;4985486;28;20448;-86
2021/06/05 03:25:08;;;;;;;125.35;80.40;;;;;;;18.66;100.00;101380.00;4982438;28;20062;-88
2021/06/05 03:27:33;;;;;;;126.82;83.03;;;;;;;18.67;100.00;101384.41;4983523;28;20046;-87
2021/06/05 03:29:58;;;;;;;122.35;81.18;;;;;;;18.70;100.00;101381.28;4978588;28;20057;-87
2021/06/05 03:32:24;;;;;;;116.53;80.35;;;;;;;18.65;100.00;101378.34;4985550;28;20049;-87
2021/06/05 03:34:49;;;;;;;119.45;78.90;;;;;;;18.65;100.00;101372.06;4981666;28;20043;-87
2021/06/05 03:37:15;;;;;;;119.40;80.63;;;;;;;18.67;100.00;101375.41;4961995;28;20049;-87
2021/06/05 03:39:41;;;;;;;119.15;77.60;;;;;;;18.62;100.00;101376.03;4983562;28;20043;-86
2021/06/05 03:42:08;;;;;;;115.78;79.28;;;;;;;18.58;100.00;101385.59;4977493;28;20066;-87
2021/06/05 03:44:36;;;;;;;126.15;82.68;;;;;;;18.60;100.00;101375.38;4962578;28;20042;-87
2021/06/05 03:47:03;;;;;;;132.32;90.75;;;;;;;18.70;100.00;101378.56;4980663;28;20056;-87
2021/06/05 03:49:28;;;;;;;130.00;85.85;;;;;;;18.59;100.00;101376.44;4970470;28;20046;-86
2021/06/05 03:51:54;;;;;;;134.52;83.57;;;;;;;18.56;100.00;101389.56;4987381;28;20521;-85
2021/06/05 03:54:20;;;;;;;130.98;88.10;;;;;;;18.56;100.00;101378.69;4986574;28;20137;-88
2021/06/05 03:56:46;;;;;;;139.32;89.97;;;;;;;18.63;100.00;101374.13;4984090;28;20249;-89
2021/06/05 03:59:12;;;;;;;134.63;89.75;;;;;;;18.60;100.00;101372.66;4977663;28;20096;-87
2021/06/05 04:01:38;;;;;;;136.65;94.60;;;;;;;18.61;100.00;101377.03;4971136;28;20746;-86
2021/06/05 04:04:04;;;;;;;140.55;96.05;;;;;;;18.70;100.00;101383.13;4969654;28;20043;-86
2021/06/05 04:06:33;;;;;;;135.07;88.00;;;;;;;18.63;100.00;101368.69;4978192;28;20050;-87
2021/06/05 04:08:58;;;;;;;;;;;;;;;18.60;100.00;101369.94;4986965;28;20054;-87
2021/06/05 04:11:26;;;;;;;138.68;88.82;;;;;;;18.57;100.00;101380.38;4983455;28;19944;-87
2021/06/05 04:13:52;;;;;;;134.30;95.22;;;;;;;18.61;100.00;101387.91;4978376;28;20081;-86
2021/06/05 04:16:17;;;;;;;137.90;92.18;;;;;;;18.65;100.00;101383.78;4973670;28;20773;-89
2021/06/05 04:18:44;;;;;;;137.43;91.22;;;;;;;18.61;100.00;101373.50;4969245;28;20093;-86
2021/06/05 04:21:12;;;;;;;133.48;88.53;;;;;;;18.59;100.00;101372.88;4983629;28;20678;-86
2021/06/05 04:23:38;;;;;;;133.73;91.93;;;;;;;18.64;100.00;101371.22;4979622;28;20107;-87
2021/06/05 04:26:05;;;;;;;164.45;112.35;;;;;;;18.54;100.00;101369.94;4985300;28;20424;-86
2021/06/05 04:28:33;;;;;;;172.82;115.40;;;;;;;18.53;100.00;101374.53;4968968;28;20053;-88
2021/06/05 04:30:58;;;;;;;172.85;115.80;;;;;;;18.50;100.00;101374.94;4977403;28;20069;-88
2021/06/05 04:33:26;;;;;;;186.48;118.22;;;;;;;18.46;100.00;101385.34;4977154;28;20432;-87
2021/06/05 04:35:53;;;;;;;188.60;122.00;;;;;;;18.35;100.00;101374.22;4973961;28;20060;-87
2021/06/05 04:38:20;;;;;;;194.35;123.82;;;;;;;18.22;100.00;101383.97;4976015;28;20066;-86
2021/06/05 04:40:46;;;;;;;200.60;124.63;;;;;;;18.21;100.00;101385.03;4982620;28;20057;-88
2021/06/05 04:43:14;;;;;;;197.65;126.68;;;;;;;18.24;100.00;101387.34;4985041;28;20128;-88
2021/06/05 04:45:39;;;;;;;185.25;124.95;;;;;;;18.29;100.00;101385.91;4981648;28;20110;-87
2021/06/05 04:48:05;;;;;;;195.15;124.90;;;;;;;18.26;100.00;101385.25;4980872;28;20493;-88
2021/06/05 04:50:33;;;;;;;197.05;123.05;;;;;;;18.20;100.00;101394.19;4980628;28;20129;-88
2021/06/05 04:52:59;;;;;;;204.50;126.07;;;;;;;18.25;100.00;101389.00;4972986;28;20047;-86
2021/06/05 04:55:25;;;;;;;210.15;123.22;;;;;;;18.11;100.00;101398.13;4976965;28;20045;-87
2021/06/05 04:57:52;;;;;;;203.27;125.63;;;;;;;18.13;100.00;101385.19;4981525;28;20050;-86
2021/06/05 05:00:31;;;;;;;205.00;125.68;;;;;;;17.99;100.00;101383.44;4978203;28;20058;-87
2021/06/05 05:02:57;;;;;;;206.48;126.43;;;;;;;18.02;100.00;101391.19;4980618;28;20078;-87
2021/06/05 05:05:23;;;;;;;204.32;126.55;;;;;;;18.03;100.00;101395.56;4949716;28;20086;-87
2021/06/05 05:07:50;;;;;;;207.98;126.78;;;;;;;17.96;100.00;101405.53;4960042;28;20414;-87
2021/06/05 05:10:19;;;;;;;207.55;125.70;;;;;;;17.97;100.00;101407.22;4962474;28;20055;-87
2021/06/05 05:12:44;;;;;;;212.95;126.28;;;;;;;18.02;100.00;101404.75;4982710;28;20051;-87
2021/06/05 05:15:10;;;;;;;206.38;123.55;;;;;;;17.88;100.00;101409.25;4988173;28;20137;-87
2021/06/05 05:17:35;;;;;;;218.25;125.90;;;;;;;17.84;100.00;101407.09;4986041;28;20039;-86
2021/06/05 05:20:03;;;;;;;223.00;129.70;;;;;;;17.91;100.00;101406.13;4977718;28;20051;-87
2021/06/05 05:22:28;;;;;;;211.23;128.50;;;;;;;17.89;100.00;101410.06;4978481;28;20058;-87
2021/06/05 05:24:54;;;;;;;211.43;130.85;;;;;;;17.93;100.00;101408.66;4980288;28;20078;-87
2021/06/05 05:27:19;;;;;;;219.77;128.88;;;;;;;17.91;100.00;101410.72;4982137;28;20567;-86
2021/06/05 05:29:45;;;;;;;223.82;129.63;;;;;;;17.86;100.00;101407.75;4963455;28;20043;-87
2021/06/05 05:32:10;;;;;;;224.38;129.43;;;;;;;17.85;100.00;101404.22;4987733;28;20444;-88
2021/06/05 05:34:35;;;;;;;228.25;132.40;;;;;;;17.78;100.00;101408.72;4965814;28;20490;-88
2021/06/05 05:37:01;;;;;;;225.13;128.75;;;;;;;17.75;100.00;101415.38;4966193;28;20405;-89
2021/06/05 05:39:28;;;;;;;225.38;131.02;;;;;;;17.86;100.00;101413.19;4962563;28;20082;-87
2021/06/05 05:41:54;;;;;;;223.38;128.35;;;;;;;17.87;100.00;101412.16;4984060;28;20513;-86
2021/06/05 05:44:20;;;;;;;219.52;126.75;;;;;;;17.76;100.00;101417.06;4965130;28;20050;-87
2021/06/05 05:46:46;;;;;;;235.15;122.53;;;;;;;17.71;100.00;101419.50;4955084;28;20493;-86
2021/06/05 05:49:12;;;;;;;221.15;122.07;;;;;;;17.64;100.00;101417.81;4985794;28;20045;-87
2021/06/05 05:51:37;;;;;;;214.18;118.57;;;;;;;17.59;100.00;101427.34;4978363;28;20054;-86
2021/06/05 05:54:04;;;;;;;217.60;120.97;;;;;;;17.60;100.00;101428.19;4976837;28;20058;-86
2021/06/05 05:56:33;;;;;;;218.90;118.68;;;;;;;17.52;100.00;101436.44;4983669;28;20046;-86
2021/06/05 05:58:58;;;;;;;228.70;119.18;;;;;;;17.47;100.00;101433.50;4984872;28;20047;-85
2021/06/05 06:01:25;;;;;;;233.30;120.93;;;;;;;17.42;100.00;101438.66;4985101;28;20046;-87
2021/06/05 06:03:53;;;;;;;221.23;114.07;;;;;;;17.43;100.00;101443.88;4980877;28;20138;-86
2021/06/05 06:06:19;;;;;;;238.55;119.20;;;;;;;17.41;100.00;101451.41;4987473;28;20046;-87
2021/06/05 06:08:44;;;;;;;249.82;119.43;;;;;;;17.38;100.00;101443.66;4986728;28;20041;-86
2021/06/05 06:11:12;;;;;;;253.00;119.72;;;;;;;17.32;100.00;101439.84;4982952;28;20051;-85
2021/06/05 06:13:42;;;;;;;263.83;123.90;;;;;;;17.40;100.00;101446.16;4981088;28;20054;-86
2021/06/05 06:16:08;;;;;;;258.83;126.78;;;;;;;17.35;100.00;101450.28;4962165;28;20367;-87
2021/06/05 06:18:35;;;;;;;275.95;124.32;;;;;;;17.29;100.00;101445.66;4981046;28;20493;-86
2021/06/05 06:21:00;;;;;;;271.67;121.22;;;;;;;17.22;100.00;101450.16;4982694;28;20046;-85
2021/06/05 06:23:28;;;;;;;284.65;127.95;;;;;;;17.29;100.00;101448.34;4965122;28;20058;-86
2021/06/05 06:25:57;;;;;;;295.35;129.52;;;;;;;17.25;100.00;101447.03;4982483;28;20057;-86
2021/06/05 06:28:28;;;;;;;304.13;133.30;;;;;;;17.17;100.00;101441.72;4976949;28;20470;-87
2021/06/05 06:30:54;;;;;;;276.65;123.53;;;;;;;17.18;100.00;101439.88;4977369;28;20501;-87
2021/06/05 06:33:20;;;;;;;297.42;127.18;;;;;;;17.16;100.00;101450.91;4976449;28;20404;-87
2021/06/05 06:35:46;;;;;;;290.55;128.40;;;;;;;17.10;100.00;101448.97;4966071;28;20043;-88
2021/06/05 06:38:15;;;;;;;289.33;126.80;;;;;;;17.08;100.00;101451.03;4982703;28;20128;-88
2021/06/05 06:40:42;;;;;;;300.15;122.95;;;;;;;17.03;100.00;101454.31;4985799;28;20432;-87
2021/06/05 06:43:10;;;;;;;257.05;119.78;;;;;;;17.15;100.00;101460.09;4981817;28;20057;-87
2021/06/05 06:45:37;;;;;;;270.00;117.80;;;;;;;17.08;100.00;101461.88;4980511;28;20057;-87
2021/06/05 06:48:02;;;;;;;262.77;115.30;;;;;;;16.98;100.00;101461.34;4963659;28;20409;-87
2021/06/05 06:50:29;;;;;;;253.05;112.55;;;;;;;17.02;100.00;101462.63;4983120;28;20054;-87
2021/06/05 06:52:56;;;;;;;238.50;106.18;;;;;;;17.02;100.00;101465.34;4980152;28;20051;-89
2021/06/05 06:55:22;;;;;;;230.85;109.63;;;;;;;17.19;100.00;101469.50;4976245;28;20149;-87
2021/06/05 06:57:48;;;;;;;240.75;107.43;;;;;;;17.17;100.00;101468.03;4983044;28;20576;-86
2021/06/05 07:00:20;;;;;;;267.85;108.55;;;;;;;17.12;100.00;101474.03;4978995;28;20130;-87
2021/06/05 07:02:46;;;;;;;236.38;104.90;;;;;;;17.21;100.00;101478.31;4981822;28;20034;-88
2021/06/05 07:05:11;;;;;;;248.52;106.95;;;;;;;17.09;100.00;101482.53;4975629;28;20070;-88
2021/06/05 07:07:37;;;;;;;227.00;97.13;;;;;;;17.03;100.00;101476.03;4975423;28;20504;-86
2021/06/05 07:10:05;;;;;;;246.95;109.13;;;;;;;17.14;100.00;101471.94;4979971;28;20048;-88
2021/06/05 07:12:31;;;;;;;240.30;104.10;;;;;;;17.10;100.00;101479.63;4972019;28;20066;-86
2021/06/05 07:14:56;;;;;;;237.00;100.50;;;;;;;17.10;100.00;101482.34;4975152;28;20050;-87
2021/06/05 07:17:22;;;;;;;227.30;105.03;;;;;;;17.08;100.00;101487.09;4986581;28;20053;-86
2021/06/05 07:19:47;;;;;;;233.52;104.57;;;;;;;17.21;100.00;101486.44;4981132;28;20046;-86
2021/06/05 07:22:12;;;;;;;233.95;99.30;;;;;;;17.21;100.00;101481.03;4981227;28;20046;-89
2021/06/05 07:24:38;;;;;;;225.90;96.13;;;;;;;17.15;100.00;101484.50;4974447;28;20050;-86
2021/06/05 07:27:04;;;;;;;223.48;98.35;;;;;;;17.13;100.00;101492.81;4983788;28;20120;-87
2021/06/05 07:29:29;;;;;;;225.50;96.25;;;;;;;17.13;100.00;101487.38;4980541;28;20062;-86
2021/06/05 07:31:55;;;;;;;234.50;106.47;;;;;;;17.22;100.00;101488.13;4978585;28;20054;-85
2021/06/05 07:34:24;;;;;;;220.30;102.38;;;;;;;17.16;100.00;101496.19;4981983;28;20057;-88
2021/06/05 07:36:53;;;;;;;224.10;101.53;;;;;;;17.16;100.00;101497.00;4984585;28;20042;-87
2021/06/05 07:39:28;;;;;;;218.15;99.45;;;;;;;17.24;100.00;101499.63;4985904;28;20042;-87
2021/06/05 07:41:54;;;;;;;224.38;102.40;;;;;;;17.35;100.00;101490.97;4958961;28;20062;-86
2021/06/05 07:44:21;;;;;;;211.25;94.57;;;;;;;17.34;100.00;101483.84;4976108;28;20068;-89
2021/06/05 07:46:51;;;;;;;192.65;92.30;;;;;;;17.34;100.00;101494.72;4985330;28;20574;-87
2021/06/05 07:49:17;;;;;;;185.65;87.93;;;;;;;17.35;100.00;101490.97;4983593;28;20100;-87
2021/06/05 07:51:44;;;;;;;180.48;84.78;;;;;;;17.45;100.00;101490.66;4984472;28;20045;-88
2021/06/05 07:54:10;;;;;;;151.73;78.35;;;;;;;17.43;100.00;101492.72;4982831;28;20166;-86
2021/06/05 07:56:36;;;;;;;153.52;79.70;;;;;;;17.46;100.00;101497.75;4958160;28;20050;-90
2021/06/05 07:59:02;;;;;;;153.38;77.07;;;;;;;17.45;100.00;101493.38;4963309;28;20062;-86
2021/06/05 08:01:30;;;;;;;150.85;76.03;;;;;;;17.57;100.00;101491.00;4981480;28;20055;-88
2021/06/05 08:03:55;;;;;;;148.73;73.65;;;;;;;17.52;100.00;101491.59;4977785;28;20062;-87
2021/06/05 08:06:21;;;;;;;151.38;77.15;;;;;;;17.50;100.00;101490.09;4979032;28;20058;-87
2021/06/05 08:08:47;;;;;;;162.98;82.38;;;;;;;17.64;100.00;101497.34;4984331;28;20066;-90
2021/06/05 08:11:13;;;;;;;130.27;69.30;;;;;;;17.66;100.00;101497.13;4979921;28;20077;-88
2021/06/05 08:13:39;;;;;;;118.90;62.78;;;;;;;17.68;100.00;101482.34;4982418;28;20062;-87
2021/06/05 08:16:06;;;;;;;122.22;66.10;;;;;;;17.69;100.00;101496.75;4973866;28;20043;-87
2021/06/05 08:18:31;;;;;;;117.32;63.22;;;;;;;17.75;100.00;101496.81;4974775;28;20055;-88
2021/06/05 08:21:00;;;;;;;109.70;58.38;;;;;;;17.88;100.00;101498.00;4979911;28;20437;-87
2021/06/05 08:23:31;;;;;;;94.07;54.42;;;;;;;17.86;100.00;101498.19;4979873;28;20390;-88
2021/06/05 08:25:57;;;;;;;95.90;56.25;;;;;;;17.89;100.00;101489.66;4982151;28;20069;-87
2021/06/05 08:28:24;;;;;;;102.05;58.60;;;;;;;17.89;100.00;101497.78;4982525;28;20070;-89
2021/06/05 08:30:52;;;;;;;103.90;58.90;;;;;;;17.96;100.00;101500.59;4988557;28;20105;-88
2021/06/05 08:33:19;;;;;;;101.20;58.85;;;;;;;18.11;100.00;101495.91;4991790;28;20116;-87
2021/06/05 08:35:45;;;;;;;100.20;58.05;;;;;;;18.25;100.00;101494.97;4978836;28;20133;-87
2021/06/05 08:38:14;;;;;;;96.85;54.25;;;;;;;18.24;100.00;101484.28;4988125;28;20039;-86
2021/06/05 08:40:42;;;;;;;;;;;;;;;18.19;100.00;101494.91;4986253;28;20065;-87
2021/06/05 08:43:09;;;;;;;94.65;54.28;;;;;;;17.96;100.00;101487.00;4987375;28;19924;-87
2021/06/05 08:45:35;;;;;;;95.65;55.08;;;;;;;18.06;100.00;101487.50;4984768;28;20058;-87
2021/06/05 08:48:10;;;;;;;94.47;55.83;;;;;;;18.09;100.00;101489.81;4980638;28;20058;-87
2021/06/05 08:50:35;;;;;;;96.07;59.40;;;;;;;18.12;100.00;101483.97;4963376;28;20046;-88
2021/06/05 08:53:13;;;;;;;97.03;55.60;;;;;;;18.25;100.00;101481.38;4987468;28;20045;-88
2021/06/05 08:55:54;;;;;;;88.95;56.38;;;;;;;18.33;100.00;101493.16;4965810;28;20717;-87
2021/06/05 08:58:39;;;;;;;95.38;57.40;;;;;;;18.42;100.00;101491.94;4979478;28;20046;-88
2021/06/05 09:01:11;;;;;;;92.55;61.17;;;;;;;18.44;100.00;101490.72;4978422;28;20034;-87
2021/06/05 09:03:39;;;;;;;98.95;61.72;;;;;;;18.49;100.00;101492.81;4987429;28;20046;-87
2021/06/05 09:06:09;;;;;;;103.25;61.80;;;;;;;18.43;100.00;101499.03;4980845;28;20045;-87
2021/06/05 09:08:36;;;;;;;108.45;64.72;;;;;;;18.36;100.00;101498.19;4967949;28;20047;-86
2021/06/05 09:11:05;;;;;;;111.18;66.05;;;;;;;18.39;100.00;101498.63;4982395;28;20307;-87
2021/06/05 09:13:32;;;;;;;100.68;57.85;;;;;;;18.34;100.00;101494.81;4978286;28;20097;-87
2021/06/05 09:16:19;;;;;;;101.47;59.20;;;;;;;18.32;100.00;101494.16;4972440;28;20405;-88
2021/06/05 09:18:56;;;;;;;93.55;58.90;;;;;;;18.44;100.00;101495.28;4983955;28;20112;-87
2021/06/05 09:21:38;;;;;;;87.50;54.70;;;;;;;18.48;100.00;101499.28;4977364;28;20046;-88
2021/06/05 09:24:27;;;;;;;93.78;56.60;;;;;;;18.50;100.00;101494.50;4980427;28;20393;-87
2021/06/05 09:27:10;;;;;;;89.28;53.25;;;;;;;18.57;100.00;101500.81;4974910;28;20177;-87
2021/06/05 09:29:57;;;;;;;86.72;53.40;;;;;;;18.63;100.00;101502.72;4975332;28;20039;-88
2021/06/05 09:32:29;;;;;;;81.95;52.95;;;;;;;18.75;100.00;101502.19;4981267;28;20105;-88
2021/06/05 09:35:10;;;;;;;79.75;48.55;;;;;;;18.70;100.00;101498.19;4986358;28;20475;-89
2021/06/05 09:37:41;;;;;;;70.85;44.75;;;;;;;18.62;100.00;101503.78;4959978;28;20070;-87
2021/06/05 09:40:19;;;;;;;76.50;47.28;;;;;;;18.72;100.00;101497.97;4958843;28;20509;-88
2021/06/05 09:42:50;;;;;;;69.72;46.33;;;;;;;18.74;100.00;101498.66;4975291;28;20046;-87
2021/06/05 09:45:22;;;;;;;63.63;43.97;;;;;;;18.79;100.00;101504.31;4971861;28;20058;-87
2021/06/05 09:47:47;;;;;;;59.53;40.50;;;;;;;18.86;100.00;101504.34;4981403;28;20058;-87
2021/06/05 09:50:24;;;;;;;64.95;43.72;;;;;;;18.86;100.00;101505.19;4981552;28;20054;-87
2021/06/05 09:52:50;;;;;;;63.95;42.47;;;;;;;18.90;100.00;101494.72;4986824;28;20034;-87
2021/06/05 09:55:15;;;;;;;67.60;42.67;;;;;;;18.90;100.00;101511.03;4979932;28;20504;-87
2021/06/05 09:57:43;;;;;;;66.32;44.33;;;;;;;18.95;100.00;101508.56;4983185;28;20042;-88
2021/06/05 10:00:15;;;;;;;64.57;44.03;;;;;;;18.96;100.00;101510.25;4979186;28;20054;-90
2021/06/05 10:02:46;;;;;;;68.47;43.83;;;;;;;19.02;100.00;101512.16;4982195;28;20867;-87
2021/06/05 10:05:48;;;;;;;77.07;47.22;;;;;;;19.09;100.00;101499.44;4983632;28;20062;-88
2021/06/05 10:08:20;;;;;;;73.47;45.17;;;;;;;19.15;100.00;101509.50;4910244;29;20048;-90
2021/06/05 10:10:49;;;;;;;65.15;44.65;;;;;;;19.13;100.00;101511.59;4962351;28;20113;-88
2021/06/05 10:13:20;;;;;;;;;;;;;;;19.11;100.00;101513.66;4975487;28;20101;-88
2021/06/05 10:15:59;;;;;;;64.43;44.03;;;;;;;19.20;100.00;101510.78;4970963;28;19968;-89
2021/06/05 10:18:32;;;;;;;68.88;43.13;;;;;;;19.25;100.00;101508.25;4953574;28;20063;-87
2021/06/05 10:21:08;;;;;;;65.10;41.25;;;;;;;19.15;100.00;101508.66;4913977;28;20126;-88
2021/06/05 10:23:38;;;;;;;62.30;40.17;;;;;;;19.21;100.00;101512.44;4912274;29;20275;-90
2021/06/05 10:26:10;;;;;;;56.28;39.63;;;;;;;19.23;100.00;101513.91;4903063;29;20190;-87
2021/06/05 10:28:39;;;;;;;60.22;39.42;;;;;;;19.34;100.00;101512.50;4857217;29;20517;-88
2021/06/05 10:31:13;;;;;;;56.40;37.97;;;;;;;19.31;100.00;101512.91;4866945;29;20097;-87
2021/06/05 10:33:43;;;;;;;46.80;32.85;;;;;;;19.21;99.74;101515.16;4867300;29;20045;-87
2021/06/05 10:36:14;;;;;;;47.15;33.60;;;;;;;19.34;99.35;101515.22;4852434;29;20053;-88
2021/06/05 10:38:40;;;;;;;44.28;33.97;;;;;;;19.60;99.46;101512.56;4849764;29;20064;-89
2021/06/05 10:41:11;;;;;;;46.38;30.65;;;;;;;19.61;98.76;101508.78;4846444;29;20076;-90
2021/06/05 10:43:37;;;;;;;38.22;30.45;;;;;;;19.77;96.96;101510.31;4826323;29;20049;-87
2021/06/05 10:46:32;;;;;;;37.65;30.73;;;;;;;19.76;95.96;101510.50;4829067;29;20149;-89
2021/06/05 10:49:16;;;;;;;39.75;31.17;;;;;;;19.75;95.99;101508.84;4910967;28;20052;-89
2021/06/05 10:51:46;;;;;;;39.38;31.20;;;;;;;19.76;96.92;101515.97;4891565;29;20123;-87
2021/06/05 10:54:33;;;;;;;43.50;32.63;;;;;;;19.89;96.55;101521.44;4904361;29;20056;-89
2021/06/05 10:57:26;;;;;;;44.65;30.45;;;;;;;19.82;95.37;101520.56;4885044;29;20052;-86
2021/06/05 10:59:57;;;;;;;40.78;31.50;;;;;;;19.89;95.89;101520.59;4837387;29;20049;-87
2021/06/05 11:02:40;;;;;;;36.80;29.45;;;;;;;19.96;94.76;101507.81;4824189;29;20051;-88
2021/06/05 11:05:18;;;;;;;37.33;29.13;;;;;;;19.89;95.48;101513.25;4812761;29;20050;-91
2021/06/05 11:07:46;;;;;;;33.47;26.70;;;;;;;19.96;94.48;101516.81;4811489;29;20684;-86